Time;durP1;ratioP1;P1;durP2;ratioP2;P2;SDS_P1;SDS_P2;PMS_P1;PMS_P2;Temp;Humidity;BMP_temperature;BMP_pressure;BME280_temperature;BME280_humidity;BME280_pressure;Samples;Min_cycle;Max_cycle;Signal;HPM_P1;HPM_P2
2023/09/17 00:02:24;;;;;;;;;20.40;19.20;;;;;19.83;70.91;99633.00;5093204;28;8822;-60
2023/09/17 00:04:52;;;;;;;;;17.80;16.40;;;;;19.82;71.10;99640.28;5094087;28;8876;-59
2023/09/17 00:07:20;;;;;;;;;16.60;12.80;;;;;19.81;70.80;99635.88;5094331;28;8818;-59
2023/09/17 00:09:47;;;;;;;;;16.00;13.00;;;;;19.80;71.29;99634.22;5094650;28;8814;-60
2023/09/17 00:12:15;;;;;;;;;19.80;16.60;;;;;19.80;71.42;99636.09;5093943;28;8850;-60
2023/09/17 00:14:42;;;;;;;;;16.60;14.40;;;;;19.81;71.20;99637.78;5094039;28;8825;-60
2023/09/17 00:17:10;;;;;;;;;16.20;13.40;;;;;19.82;71.10;99640.28;5094172;28;8838;-58
2023/09/17 00:19:39;;;;;;;;;19.00;17.80;;;;;19.82;70.87;99636.72;5094122;28;8830;-59
2023/09/17 00:22:09;;;;;;;;;19.60;18.40;;;;;19.82;71.34;99640.28;5093272;28;8810;-60
2023/09/17 00:24:37;;;;;;;;;19.60;19.20;;;;;19.81;70.55;99637.78;5097892;28;8825;-59
2023/09/17 00:27:04;;;;;;;;;13.80;12.20;;;;;19.79;70.87;99632.53;5097260;28;8822;-58
2023/09/17 00:29:32;;;;;;;;;14.60;14.00;;;;;19.79;71.00;99629.00;5094855;28;8946;-59
2023/09/17 00:32:00;;;;;;;;;17.20;16.60;;;;;19.77;71.53;99636.44;5095703;28;8810;-58
2023/09/17 00:34:27;;;;;;;;;21.00;19.20;;;;;19.76;71.30;99624.81;5096676;28;8822;-58
2023/09/17 00:36:55;;;;;;;;;15.80;15.40;;;;;19.75;71.38;99623.16;5097253;28;8963;-60
2023/09/17 00:39:23;;;;;;;;;20.40;20.40;;;;;19.76;71.02;99615.84;5097400;28;8822;-57
2023/09/17 00:41:52;;;;;;;;;19.80;19.00;;;;;19.74;71.14;99621.47;5097272;28;8836;-60
2023/09/17 00:44:19;;;;;;;;;13.60;12.80;;;;;19.73;71.19;99625.19;5097423;28;8806;-61
2023/09/17 00:46:47;;;;;;;;;13.40;11.00;;;;;19.70;71.27;99620.16;5097106;28;8930;-59
2023/09/17 00:49:15;;;;;;;;;16.60;16.20;;;;;19.65;71.67;99617.16;5096895;28;8822;-60
2023/09/17 00:51:43;;;;;;;;;22.40;21.80;;;;;19.59;71.39;99617.94;5096327;28;8906;-60
2023/09/17 00:54:10;;;;;;;;;16.40;16.00;;;;;19.52;71.93;99614.31;5096823;28;8838;-60
2023/09/17 00:56:38;;;;;;;;;18.20;18.00;;;;;19.47;71.78;99618.56;5096875;28;8834;-58
2023/09/17 00:59:05;;;;;;;;;21.00;17.20;;;;;19.40;72.11;99618.50;5096730;28;8914;-60
2023/09/17 01:01:33;;;;;;;;;18.20;15.60;;;;;19.36;72.26;99606.38;5097239;28;8829;-60
2023/09/17 01:04:01;;;;;;;;;14.00;14.00;;;;;19.33;72.59;99617.56;5096950;28;9565;-60
2023/09/17 01:06:29;;;;;;;;;16.20;16.20;;;;;19.30;72.56;99611.69;5096825;28;8834;-60
2023/09/17 01:08:57;;;;;;;;;20.00;15.40;;;;;19.26;72.14;99600.41;5096538;28;8818;-58
2023/09/17 01:11:24;;;;;;;;;19.80;19.60;;;;;19.25;72.36;99612.25;5096259;28;8841;-60
2023/09/17 01:14:07;;;;;;;;;18.00;16.00;;;;;19.24;72.98;99602.47;5096420;28;8841;-59
2023/09/17 01:16:35;;;;;;;;;18.60;18.60;;;;;19.23;72.00;99611.59;5096834;28;8850;-59
2023/09/17 01:19:03;;;;;;;;;17.00;16.00;;;;;19.26;72.39;99596.88;5096511;28;8972;-57
2023/09/17 01:21:32;;;;;;;;;13.80;11.40;;;;;19.28;72.34;99600.25;5096841;28;8818;-58
2023/09/17 01:24:00;;;;;;;;;18.40;17.40;;;;;19.32;72.03;99588.88;5096548;28;8834;-59
2023/09/17 01:26:27;;;;;;;;;20.20;17.60;;;;;19.37;71.98;99593.72;5096388;28;8822;-60
2023/09/17 01:28:55;;;;;;;;;18.80;18.00;;;;;19.40;71.81;99586.06;5096936;28;9491;-58
2023/09/17 01:31:23;;;;;;;;;16.40;15.80;;;;;19.44;72.18;99587.41;5096099;28;9547;-59
2023/09/17 01:33:51;;;;;;;;;18.80;17.60;;;;;19.48;71.96;99585.97;5096353;28;8826;-58
2023/09/17 01:36:19;;;;;;;;;19.80;15.80;;;;;19.50;71.65;99591.22;5096342;28;8888;-59
2023/09/17 01:38:47;;;;;;;;;19.80;18.60;;;;;19.52;71.42;99590.00;5096236;28;8827;-59
2023/09/17 01:41:15;;;;;;;;;17.20;16.00;;;;;19.52;71.52;99587.28;5096482;28;8822;-58
2023/09/17 01:43:44;;;;;;;;;15.20;13.60;;;;;19.55;71.83;99586.06;5096684;28;9534;-59
2023/09/17 01:46:12;;;;;;;;;14.20;13.40;;;;;19.57;71.62;99584.84;5096052;28;8842;-58
2023/09/17 01:48:42;;;;;;;;;17.20;16.40;;;;;19.57;71.85;99587.56;5095814;28;8834;-58
2023/09/17 01:51:11;;;;;;;;;15.80;13.40;;;;;19.57;71.57;99584.03;5095982;28;8845;-58
2023/09/17 01:53:38;;;;;;;;;13.40;12.80;;;;;19.58;71.99;99580.31;5095789;28;8818;-60
2023/09/17 01:56:06;;;;;;;;;17.80;17.80;;;;;19.58;72.11;99578.41;5095904;28;8830;-58
2023/09/17 01:58:34;;;;;;;;;14.40;13.20;;;;;19.58;71.65;99583.81;5095423;28;8824;-57
2023/09/17 02:01:03;;;;;;;;;15.80;13.80;;;;;19.59;72.08;99569.31;5096211;28;9507;-59
2023/09/17 02:03:30;;;;;;;;;16.00;15.60;;;;;19.59;71.80;99580.13;5095831;28;8902;-58
2023/09/17 02:05:59;;;;;;;;;7.00;5.20;;;;;19.59;72.06;99569.31;5095704;28;8822;-61
2023/09/17 02:08:27;;;;;;;;;12.40;10.60;;;;;19.60;72.07;99562.88;5096083;28;8822;-60
2023/09/17 02:10:55;;;;;;;;;14.40;14.40;;;;;19.61;71.75;99561.84;5095074;28;8848;-58
2023/09/17 02:13:22;;;;;;;;;13.40;13.20;;;;;19.63;71.74;99565.19;5095372;28;8817;-58
2023/09/17 02:15:50;;;;;;;;;17.80;15.00;;;;;19.65;71.81;99568.53;5095686;28;8826;-58
2023/09/17 02:18:17;;;;;;;;;17.20;16.00;;;;;19.67;71.98;99562.94;5095717;28;8821;-60
2023/09/17 02:20:45;;;;;;;;;16.40;15.20;;;;;19.67;71.73;99571.91;5095044;28;8841;-59
2023/09/17 02:23:12;;;;;;;;;13.20;13.20;;;;;19.68;71.91;99568.19;5096187;28;8838;-60
2023/09/17 02:25:40;;;;;;;;;17.20;16.00;;;;;19.68;71.79;99567.31;5095380;28;8830;-59
2023/09/17 02:28:08;;;;;;;;;17.80;16.60;;;;;19.67;71.95;99563.81;5095233;28;8964;-57
2023/09/17 02:30:36;;;;;;;;;19.00;17.40;;;;;19.68;71.98;99568.19;5095532;28;8868;-58
2023/09/17 02:33:03;;;;;;;;;16.80;16.20;;;;;19.68;71.92;99572.72;5094340;28;8814;-58
2023/09/17 02:35:31;;;;;;;;;11.00;10.00;;;;;19.66;72.26;99580.19;5095341;28;8822;-59
2023/09/17 02:37:59;;;;;;;;;17.80;16.80;;;;;19.61;71.66;99580.75;5095197;28;8968;-58
2023/09/17 02:40:27;;;;;;;;;14.80;14.20;;;;;19.60;71.76;99586.34;5095022;28;8829;-60
2023/09/17 02:42:54;;;;;;;;;16.00;15.60;;;;;19.59;71.54;99590.94;5094824;28;8879;-58
2023/09/17 02:45:22;;;;;;;;;18.60;18.60;;;;;19.58;72.21;99583.00;5094278;28;8838;-59
2023/09/17 02:47:51;;;;;;;;;9.60;7.80;;;;;19.58;72.26;99577.59;5095650;28;8817;-60
2023/09/17 02:50:19;;;;;;;;;19.00;19.00;;;;;19.58;71.91;99577.59;5094280;28;8806;-58
2023/09/17 02:52:47;;;;;;;;;14.80;13.20;;;;;19.57;72.26;99582.16;5094986;28;8831;-57
2023/09/17 02:55:15;;;;;;;;;19.60;19.20;;;;;19.56;72.36;99575.06;5095305;28;8915;-60
2023/09/17 02:57:43;;;;;;;;;15.40;14.20;;;;;19.54;72.37;99577.13;5094943;28;8891;-58
2023/09/17 03:00:13;;;;;;;;;18.60;16.20;;;;;19.52;72.31;99571.09;5094915;28;8841;-59
2023/09/17 03:02:40;;;;;;;;;23.00;18.00;;;;;19.50;72.07;99567.72;5095209;28;8833;-58
2023/09/17 03:05:10;;;;;;;;;19.20;16.60;;;;;19.50;72.48;99564.19;5095068;28;8814;-58
2023/09/17 03:07:38;;;;;;;;;20.60;17.20;;;;;19.48;72.25;99561.66;5094982;28;8848;-59
2023/09/17 03:10:11;;;;;;;;;17.40;16.20;;;;;19.48;72.12;99564.38;5094514;28;8822;-59
2023/09/17 03:12:39;;;;;;;;;16.60;15.40;;;;;19.48;72.57;99566.22;5094686;28;8833;-60
2023/09/17 03:15:07;;;;;;;;;21.00;18.00;;;;;19.48;72.50;99567.06;5094675;28;8830;-58
2023/09/17 03:17:34;;;;;;;;;9.80;8.00;;;;;19.49;72.34;99563.34;5094543;28;8870;-58
2023/09/17 03:20:13;;;;;;;;;19.80;17.20;;;;;19.50;72.33;99554.22;5094117;28;8813;-58
2023/09/17 03:22:41;;;;;;;;;15.00;13.00;;;;;19.50;72.54;99559.59;5094247;28;8829;-60
2023/09/17 03:25:09;;;;;;;;;21.20;18.40;;;;;19.48;72.73;99555.41;5094216;28;8842;-58
2023/09/17 03:27:37;;;;;;;;;16.60;16.00;;;;;19.47;72.53;99565.41;5094362;28;8814;-58
2023/09/17 03:30:04;;;;;;;;;18.60;17.20;;;;;19.45;72.71;99555.81;5094983;28;8849;-60
2023/09/17 03:32:33;;;;;;;;;17.40;16.00;;;;;19.43;72.53;99572.19;5094242;28;8814;-58
2023/09/17 03:35:00;;;;;;;;;18.60;17.00;;;;;19.42;72.85;99583.19;5094599;28;8960;-59
2023/09/17 03:37:29;;;;;;;;;23.00;19.40;;;;;19.39;72.85;99588.97;5094497;28;8822;-59
2023/09/17 03:39:56;;;;;;;;;21.60;21.20;;;;;19.34;73.12;99594.91;5094210;28;8822;-58
2023/09/17 03:42:24;;;;;;;;;19.00;18.00;;;;;19.31;72.83;99560.19;5094331;28;8838;-58
2023/09/17 03:44:51;;;;;;;;;18.40;18.20;;;;;19.25;72.92;99566.34;5095065;28;8806;-59
2023/09/17 03:47:19;;;;;;;;;20.40;18.60;;;;;19.20;73.32;99559.81;5094500;28;8877;-58
2023/09/17 03:49:47;;;;;;;;;21.20;19.00;;;;;19.17;73.11;99547.50;5094546;28;9745;-60
2023/09/17 03:52:15;;;;;;;;;21.20;18.00;;;;;19.17;73.34;99557.44;5094264;28;8842;-58
2023/09/17 03:54:43;;;;;;;;;22.20;18.00;;;;;19.17;73.15;99562.84;5094305;28;9516;-60
2023/09/17 03:57:10;;;;;;;;;20.20;17.20;;;;;19.16;73.50;99556.63;5094237;28;8840;-60
2023/09/17 03:59:38;;;;;;;;;25.20;22.00;;;;;19.17;73.89;99557.44;5098006;28;8830;-57
2023/09/17 04:02:05;;;;;;;;;20.00;18.80;;;;;19.13;73.89;99553.47;5098084;28;8838;-59
2023/09/17 04:04:33;;;;;;;;;21.80;21.20;;;;;19.11;73.81;99556.34;5098140;28;8832;-60
2023/09/17 04:07:02;;;;;;;;;21.20;19.20;;;;;19.11;73.57;99556.34;5098624;28;9613;-60
2023/09/17 04:09:30;;;;;;;;;12.80;10.80;;;;;19.08;73.22;99553.16;5097833;28;8818;-61
2023/09/17 04:11:57;;;;;;;;;21.80;18.00;;;;;19.06;73.58;99547.94;5097793;28;8806;-61
2023/09/17 04:14:25;;;;;;;;;17.80;16.80;;;;;19.05;73.81;99548.97;5098457;28;8826;-60
2023/09/17 04:16:54;;;;;;;;;21.40;19.40;;;;;19.03;73.99;99551.03;5098151;28;8957;-60
2023/09/17 04:19:22;;;;;;;;;20.80;19.40;;;;;19.01;73.81;99554.94;5098062;28;8940;-59
2023/09/17 04:21:49;;;;;;;;;15.40;13.00;;;;;18.99;74.07;99548.88;5097695;28;8830;-61
2023/09/17 04:24:18;;;;;;;;;13.00;13.00;;;;;18.99;74.14;99544.34;5097746;28;8864;-58
2023/09/17 04:26:46;;;;;;;;;19.20;17.00;;;;;19.00;74.07;99546.00;5097709;28;8828;-60
2023/09/17 04:29:14;;;;;;;;;18.80;18.00;;;;;19.02;74.14;99548.50;5097469;28;8843;-60
2023/09/17 04:31:42;;;;;;;;;20.60;18.80;;;;;19.04;73.89;99544.59;5097266;28;8857;-61
2023/09/17 04:34:09;;;;;;;;;22.60;18.00;;;;;19.05;73.79;99551.66;5097449;28;9495;-60
2023/09/17 04:36:37;;;;;;;;;12.20;12.00;;;;;19.06;73.58;99544.44;5097347;28;8830;-60
2023/09/17 04:39:05;;;;;;;;;21.00;19.60;;;;;19.07;73.68;99549.66;5096840;28;8858;-59
2023/09/17 04:41:32;;;;;;;;;23.60;21.40;;;;;19.07;73.38;99555.03;5097096;28;8834;-61
2023/09/17 04:44:00;;;;;;;;;18.60;18.00;;;;;19.06;74.10;99550.63;5097058;28;8951;-58
2023/09/17 04:46:28;;;;;;;;;15.00;14.00;;;;;19.07;73.70;99552.34;5097513;28;8842;-57
2023/09/17 04:48:56;;;;;;;;;19.40;19.00;;;;;19.09;73.72;99549.44;5097214;28;8985;-60
2023/09/17 04:51:24;;;;;;;;;19.20;17.60;;;;;19.10;73.98;99554.66;5097953;28;8832;-59
2023/09/17 04:53:51;;;;;;;;;23.00;20.00;;;;;19.11;73.93;99558.22;5097336;28;8842;-58
2023/09/17 04:56:19;;;;;;;;;21.20;19.60;;;;;19.11;73.62;99556.34;5097186;28;8832;-60
2023/09/17 04:58:47;;;;;;;;;17.60;17.00;;;;;19.12;73.38;99555.31;5097477;28;8814;-60
2023/09/17 05:01:14;;;;;;;;;25.00;23.80;;;;;19.13;73.92;99551.56;5097126;28;8845;-60
2023/09/17 05:03:43;;;;;;;;;17.80;16.20;;;;;19.14;73.90;99558.69;5097592;28;9502;-60
2023/09/17 05:06:10;;;;;;;;;19.80;18.80;;;;;19.14;73.64;99561.38;5096852;28;8860;-60
2023/09/17 05:08:38;;;;;;;;;18.20;17.00;;;;;19.13;73.65;99556.16;5096841;28;8834;-58
2023/09/17 05:11:06;;;;;;;;;21.00;19.00;;;;;19.13;73.52;99554.28;5096871;28;8818;-60
2023/09/17 05:13:33;;;;;;;;;20.20;19.00;;;;;19.11;73.96;99553.63;5096857;28;8852;-60
2023/09/17 05:16:01;;;;;;;;;17.00;14.40;;;;;19.11;74.23;99553.63;5096657;28;8850;-60
2023/09/17 05:18:29;;;;;;;;;18.00;16.60;;;;;19.10;74.01;99551.97;5096534;28;8941;-59
2023/09/17 05:20:57;;;;;;;;;17.60;17.60;;;;;19.13;73.86;99550.75;5097222;28;9491;-58
2023/09/17 05:23:24;;;;;;;;;18.00;15.40;;;;;19.13;73.70;99559.69;5096559;28;8814;-59
2023/09/17 05:25:52;;;;;;;;;22.40;18.80;;;;;19.15;73.82;99556.81;5096271;28;8833;-60
2023/09/17 05:28:20;;;;;;;;;19.60;16.60;;;;;19.17;73.75;99552.03;5096534;28;8973;-58
2023/09/17 05:30:48;;;;;;;;;18.60;18.60;;;;;19.18;74.06;99551.88;5096727;28;8826;-60
2023/09/17 05:33:15;;;;;;;;;19.00;18.40;;;;;19.20;74.13;99552.53;5096832;28;9515;-58
2023/09/17 05:35:43;;;;;;;;;23.80;21.00;;;;;19.22;73.89;99555.91;5096120;28;8890;-58
2023/09/17 05:38:11;;;;;;;;;20.80;16.00;;;;;19.24;73.86;99550.31;5096690;28;8841;-58
2023/09/17 05:40:38;;;;;;;;;21.20;20.00;;;;;19.26;73.36;99551.81;5096223;28;8845;-58
2023/09/17 05:43:06;;;;;;;;;16.40;16.00;;;;;19.27;74.07;99552.66;5095467;28;8851;-60
2023/09/17 05:45:34;;;;;;;;;26.60;22.40;;;;;19.28;73.72;99549.75;5096047;28;8821;-60
2023/09/17 05:48:01;;;;;;;;;22.00;20.80;;;;;19.29;73.72;99551.44;5095979;28;8814;-57
2023/09/17 05:50:29;;;;;;;;;18.00;16.00;;;;;19.31;73.90;99546.69;5095602;28;8872;-58
2023/09/17 05:52:57;;;;;;;;;21.80;18.40;;;;;19.32;73.53;99542.97;5095461;28;8830;-59
2023/09/17 05:55:25;;;;;;;;;15.80;15.60;;;;;19.35;73.64;99545.28;5095604;28;8829;-58
2023/09/17 05:57:52;;;;;;;;;20.00;17.60;;;;;19.37;73.55;99553.19;5095674;28;8836;-58
2023/09/17 06:00:20;;;;;;;;;20.40;19.00;;;;;19.38;73.70;99550.31;5095879;28;8940;-58
2023/09/17 06:02:48;;;;;;;;;21.20;20.80;;;;;19.41;73.21;99551.81;5095635;28;8861;-59
2023/09/17 06:05:17;;;;;;;;;17.00;15.60;;;;;19.44;73.50;99556.84;5095730;28;8826;-59
2023/09/17 06:07:45;;;;;;;;;18.60;16.60;;;;;19.47;73.38;99543.78;5095034;28;9495;-59
2023/09/17 06:10:12;;;;;;;;;21.60;19.60;;;;;19.49;73.43;99547.13;5094952;28;8818;-57
2023/09/17 06:12:41;;;;;;;;;23.20;17.80;;;;;19.54;73.25;99549.25;5095166;28;8818;-58
2023/09/17 06:15:08;;;;;;;;;22.00;20.80;;;;;19.56;73.28;99539.13;5095218;28;8846;-58
2023/09/17 06:17:37;;;;;;;;;20.80;18.00;;;;;19.60;73.24;99535.00;5094973;28;8868;-59
2023/09/17 06:20:05;;;;;;;;;23.60;22.20;;;;;19.63;72.95;99534.63;5093994;28;8877;-59
2023/09/17 06:22:32;;;;;;;;;17.60;15.00;;;;;19.67;73.40;99539.50;5093689;28;8830;-58
2023/09/17 06:25:00;;;;;;;;;22.80;19.80;;;;;19.71;72.97;99539.94;5093819;28;8915;-58
2023/09/17 06:27:29;;;;;;;;;22.80;18.80;;;;;19.75;73.20;99541.22;5094192;28;8844;-60
2023/09/17 06:29:59;;;;;;;;;17.20;16.60;;;;;19.78;72.97;99530.88;5093881;28;8822;-58
2023/09/17 06:32:26;;;;;;;;;9.20;8.00;;;;;19.84;73.02;99532.81;5093568;28;8853;-58
2023/09/17 06:34:54;;;;;;;;;22.20;18.80;;;;;19.90;72.49;99537.47;5093516;28;8969;-58
2023/09/17 06:37:22;;;;;;;;;21.80;19.00;;;;;19.97;72.65;99537.53;5094483;28;8834;-58
2023/09/17 06:39:50;;;;;;;;;24.60;22.20;;;;;20.02;72.45;99535.91;5094490;28;8965;-58
2023/09/17 06:42:17;;;;;;;;;18.60;17.20;;;;;20.08;72.27;99532.47;5094331;28;8841;-58
2023/09/17 06:44:45;;;;;;;;;22.20;16.60;;;;;20.18;72.21;99532.19;5094330;28;8942;-58
2023/09/17 06:47:13;;;;;;;;;17.20;16.20;;;;;20.23;71.82;99535.97;5095420;28;8868;-59
2023/09/17 06:49:41;;;;;;;;;18.80;15.00;;;;;20.31;71.86;99543.94;5094385;28;8832;-60
2023/09/17 06:52:08;;;;;;;;;23.40;21.40;;;;;20.39;71.64;99535.69;5094286;28;8848;-60
2023/09/17 06:54:36;;;;;;;;;13.80;13.00;;;;;20.47;71.42;99532.84;5095289;28;8884;-60
2023/09/17 06:57:04;;;;;;;;;17.40;16.60;;;;;20.55;71.41;99538.13;5094660;28;8845;-61
2023/09/17 06:59:32;;;;;;;;;14.00;14.00;;;;;20.63;71.35;99539.88;5094576;28;8833;-59
2023/09/17 07:02:00;;;;;;;;;19.20;18.00;;;;;20.71;70.54;99537.84;5094412;28;8826;-58
2023/09/17 07:04:28;;;;;;;;;18.20;17.40;;;;;20.81;70.87;99535.66;5095020;28;8957;-59
2023/09/17 07:07:00;;;;;;;;;15.40;14.00;;;;;20.89;70.77;99530.13;5094222;28;9504;-61
2023/09/17 07:09:28;;;;;;;;;17.60;16.40;;;;;20.97;70.79;99525.38;5094280;28;8814;-60
2023/09/17 07:11:56;;;;;;;;;12.80;11.80;;;;;21.03;70.77;99523.75;5095275;28;8883;-59
2023/09/17 07:14:24;;;;;;;;;15.20;14.40;;;;;21.09;70.44;99522.94;5094441;28;8852;-60
2023/09/17 07:16:51;;;;;;;;;11.00;10.80;;;;;21.12;70.41;99530.69;5094198;28;8854;-59
2023/09/17 07:19:19;;;;;;;;;16.20;14.00;;;;;21.17;70.49;99522.78;5093951;28;8838;-61
2023/09/17 07:21:47;;;;;;;;;16.00;14.00;;;;;21.23;70.41;99520.13;5094149;28;8822;-61
2023/09/17 07:24:15;;;;;;;;;10.20;10.20;;;;;21.32;70.27;99535.19;5094373;28;8838;-58
2023/09/17 07:26:43;;;;;;;;;18.00;16.20;;;;;21.41;70.26;99536.69;5094308;28;8915;-59
2023/09/17 07:29:11;;;;;;;;;11.40;11.00;;;;;21.51;70.05;99534.47;5093523;28;8830;-58
2023/09/17 07:31:39;;;;;;;;;12.20;12.20;;;;;21.64;69.50;99534.50;5094291;28;8828;-59
2023/09/17 07:34:08;;;;;;;;;11.20;10.60;;;;;21.77;69.53;99531.03;5097611;28;8814;-59
2023/09/17 07:36:35;;;;;;;;;11.20;11.20;;;;;21.89;69.44;99526.69;5098516;28;9581;-61
2023/09/17 07:39:04;;;;;;;;;11.40;11.40;;;;;22.00;68.66;99528.84;5097307;28;8826;-58
2023/09/17 07:41:31;;;;;;;;;9.60;9.20;;;;;22.18;68.43;99526.34;5096807;28;8898;-60
2023/09/17 07:44:00;;;;;;;;;11.60;10.60;;;;;22.32;68.29;99536.19;5097206;28;8864;-60
2023/09/17 07:46:28;;;;;;;;;12.00;10.20;;;;;22.43;68.46;99530.16;5096836;28;9670;-60
2023/09/17 07:48:55;;;;;;;;;10.80;8.80;;;;;22.54;68.15;99535.00;5095918;28;8825;-58
2023/09/17 07:51:24;;;;;;;;;8.40;8.40;;;;;22.59;68.11;99532.47;5096359;28;8841;-58
2023/09/17 07:53:51;;;;;;;;;12.20;11.20;;;;;22.64;68.02;99532.69;5096466;28;8922;-61
2023/09/17 07:56:20;;;;;;;;;9.40;8.20;;;;;22.66;67.81;99531.44;5096779;28;8830;-60
2023/09/17 07:58:51;;;;;;;;;10.20;10.20;;;;;22.70;67.89;99540.00;5097223;28;8842;-58
2023/09/17 08:01:19;;;;;;;;;8.20;8.20;;;;;22.72;68.12;99546.06;5097227;28;8872;-59
2023/09/17 08:03:47;;;;;;;;;8.40;8.00;;;;;22.74;68.33;99543.97;5097280;28;8838;-58
2023/09/17 08:06:15;;;;;;;;;10.60;9.40;;;;;22.74;67.69;99544.81;5096674;28;8928;-59
2023/09/17 08:08:45;;;;;;;;;11.20;11.00;;;;;22.76;68.40;99545.44;5096620;28;8822;-58
2023/09/17 08:11:15;;;;;;;;;8.20;8.00;;;;;22.81;68.28;99544.78;5096573;28;8822;-60
2023/09/17 08:13:43;;;;;;;;;9.80;9.00;;;;;22.86;68.13;99547.72;5096734;28;8971;-58
2023/09/17 08:16:11;;;;;;;;;8.40;8.40;;;;;22.94;68.09;99544.78;5096620;28;9535;-60
2023/09/17 08:18:39;;;;;;;;;9.00;9.00;;;;;23.04;67.02;99539.75;5096469;28;8841;-59
2023/09/17 08:21:06;;;;;;;;;12.80;12.80;;;;;23.16;66.83;99535.41;5096203;28;8818;-59
2023/09/17 08:23:36;;;;;;;;;11.80;11.20;;;;;23.25;66.91;99528.69;5096023;28;8838;-59
2023/09/17 08:26:05;;;;;;;;;9.40;8.60;;;;;23.33;67.07;99537.44;5096867;28;8907;-59
2023/09/17 08:28:34;;;;;;;;;9.60;9.20;;;;;23.43;67.07;99547.88;5094690;28;8865;-59
2023/09/17 08:31:02;;;;;;;;;10.60;9.60;;;;;23.53;66.30;99540.09;5095451;28;9478;-60
2023/09/17 08:33:30;;;;;;;;;11.20;11.20;;;;;23.61;66.04;99542.59;5095766;28;8826;-60
2023/09/17 08:35:58;;;;;;;;;10.00;10.00;;;;;23.71;65.94;99554.69;5095711;28;8844;-58
2023/09/17 08:38:26;;;;;;;;;12.00;11.80;;;;;23.84;66.01;99545.63;5095977;28;8810;-60
2023/09/17 08:40:54;;;;;;;;;8.60;8.60;;;;;23.92;66.27;99548.13;5096170;28;8854;-59
2023/09/17 08:43:22;;;;;;;;;7.60;7.60;;;;;24.00;65.81;99548.72;5095279;28;8834;-60
2023/09/17 08:45:50;;;;;;;;;9.00;9.00;;;;;24.12;64.92;99551.59;5096072;28;8927;-60
2023/09/17 08:48:18;;;;;;;;;9.80;9.80;;;;;24.32;64.99;99546.84;5096306;28;8822;-61
2023/09/17 08:50:46;;;;;;;;;8.80;8.00;;;;;24.47;64.93;99548.22;5095966;28;8830;-60
2023/09/17 08:53:14;;;;;;;;;10.00;9.80;;;;;24.59;64.47;99553.81;5095880;28;8953;-58
2023/09/17 08:55:41;;;;;;;;;9.80;8.20;;;;;24.67;64.19;99553.53;5095724;28;8880;-60
2023/09/17 08:58:12;;;;;;;;;9.40;9.40;;;;;24.72;64.18;99551.00;5096064;28;8806;-61
2023/09/17 09:00:40;;;;;;;;;10.00;9.00;;;;;24.76;64.75;99553.06;5095078;28;8829;-61
2023/09/17 09:03:08;;;;;;;;;8.60;8.60;;;;;24.84;64.46;99552.78;5096218;28;8837;-61
2023/09/17 09:05:37;;;;;;;;;7.80;7.80;;;;;24.95;64.01;99553.94;5095937;28;8850;-61
2023/09/17 09:08:04;;;;;;;;;5.40;5.40;;;;;25.05;63.46;99551.53;5095890;28;8841;-59
2023/09/17 09:10:33;;;;;;;;;9.40;7.80;;;;;25.15;63.71;99540.94;5095248;28;8829;-59
2023/09/17 09:13:01;;;;;;;;;7.00;6.80;;;;;25.28;63.85;99543.56;5094631;28;8813;-59
2023/09/17 09:15:29;;;;;;;;;9.40;9.00;;;;;25.32;63.13;99542.09;5095174;28;8836;-59
2023/09/17 09:17:57;;;;;;;;;9.80;9.00;;;;;25.32;63.44;99547.53;5095448;28;8825;-59
2023/09/17 09:20:25;;;;;;;;;6.20;6.00;;;;;25.41;63.25;99554.34;5095491;28;8985;-60
2023/09/17 09:22:56;;;;;;;;;5.20;2.00;;;;;25.54;62.93;99543.31;5095439;28;8845;-59
2023/09/17 09:25:24;;;;;;;;;8.60;8.60;;;;;25.69;62.49;99547.31;5095311;28;8830;-59
2023/09/17 09:27:51;;;;;;;;;8.20;7.00;;;;;25.74;62.59;99547.47;5095301;28;8842;-59
2023/09/17 09:30:19;;;;;;;;;4.60;2.80;;;;;25.71;62.50;99539.72;5095476;28;8826;-60
2023/09/17 09:32:46;;;;;;;;;9.60;8.00;;;;;25.67;62.47;99543.97;5095517;28;8826;-59
2023/09/17 09:35:15;;;;;;;;;6.80;6.80;;;;;25.67;62.76;99541.25;5095581;28;8902;-59
2023/09/17 09:37:43;;;;;;;;;8.40;7.20;;;;;25.73;62.22;99541.16;5095810;28;8842;-58
2023/09/17 09:40:11;;;;;;;;;10.00;9.60;;;;;25.80;62.43;99543.81;5095660;28;8830;-60
2023/09/17 09:42:39;;;;;;;;;6.00;6.00;;;;;25.82;62.21;99547.97;5095521;28;8849;-58
2023/09/17 09:45:07;;;;;;;;;6.00;6.00;;;;;25.88;62.34;99544.34;5094906;28;8826;-59
2023/09/17 09:47:34;;;;;;;;;6.00;6.00;;;;;26.02;61.86;99554.03;5095036;28;8970;-59
2023/09/17 09:50:03;;;;;;;;;6.60;6.60;;;;;26.24;61.10;99552.47;5095705;28;8852;-59
2023/09/17 09:52:31;;;;;;;;;6.40;6.00;;;;;26.47;60.40;99546.25;5095076;28;8846;-60
2023/09/17 09:55:01;;;;;;;;;7.20;6.60;;;;;26.64;60.87;99550.84;5095022;28;9500;-58
2023/09/17 09:57:29;;;;;;;;;6.00;6.00;;;;;26.91;59.89;99543.88;5094513;28;8856;-60
2023/09/17 09:59:57;;;;;;;;;6.00;6.00;;;;;27.20;59.91;99547.59;5095504;28;8846;-59
2023/09/17 10:02:25;;;;;;;;;6.20;4.00;;;;;27.54;58.51;99544.00;5094840;28;9537;-59
2023/09/17 10:04:53;;;;;;;;;6.20;5.80;;;;;28.09;57.86;99548.78;5094972;28;8838;-57
2023/09/17 10:07:21;;;;;;;;;7.00;6.00;;;;;28.79;55.87;99554.75;5094772;28;9533;-60
2023/09/17 10:09:49;;;;;;;;;6.00;6.00;;;;;29.44;54.70;99537.41;5094563;28;8822;-61
2023/09/17 10:12:16;;;;;;;;;6.80;6.80;;;;;29.71;54.73;99540.28;5094949;28;8826;-59
2023/09/17 10:14:44;;;;;;;;;8.80;8.00;;;;;30.28;53.79;99536.06;5094743;28;8834;-59
2023/09/17 10:17:14;;;;;;;;;6.20;6.20;;;;;30.75;52.21;99546.19;5094924;28;8880;-60
2023/09/17 10:19:41;;;;;;;;;8.40;8.40;;;;;31.28;51.71;99546.09;5094144;28;8818;-59
2023/09/17 10:22:10;;;;;;;;;4.60;4.00;;;;;31.73;51.10;99529.84;5094554;28;8834;-60
2023/09/17 10:24:38;;;;;;;;;5.00;5.00;;;;;32.09;50.21;99523.38;5093960;28;8850;-59
2023/09/17 10:27:06;;;;;;;;;6.40;6.40;;;;;32.17;50.18;99523.66;5094159;28;8829;-60
2023/09/17 10:29:35;;;;;;;;;4.80;4.60;;;;;31.84;50.66;99535.16;5094653;28;9582;-60
2023/09/17 10:32:02;;;;;;;;;6.60;5.60;;;;;31.48;51.65;99526.94;5094247;28;8948;-60
2023/09/17 10:34:31;;;;;;;;;6.60;5.80;;;;;31.15;52.34;99530.00;5094041;28;8876;-58
2023/09/17 10:36:59;;;;;;;;;5.00;5.00;;;;;30.72;53.09;99532.13;5094186;28;8822;-59
2023/09/17 10:39:27;;;;;;;;;5.80;5.80;;;;;30.41;54.46;99536.47;5093476;28;8844;-59
2023/09/17 10:41:56;;;;;;;;;5.00;5.00;;;;;30.11;54.85;99540.81;5094284;28;8830;-59
2023/09/17 10:44:24;;;;;;;;;5.20;5.00;;;;;29.80;55.05;99525.03;5093678;28;8869;-61
2023/09/17 10:46:52;;;;;;;;;4.60;4.60;;;;;29.61;55.57;99530.00;5093923;28;8850;-59
2023/09/17 10:49:21;;;;;;;;;6.00;6.00;;;;;29.50;55.13;99525.44;5093588;28;8818;-59
2023/09/17 10:51:49;;;;;;;;;5.00;5.00;;;;;29.40;55.44;99538.19;5093219;28;8915;-59
2023/09/17 10:54:17;;;;;;;;;6.40;6.20;;;;;29.17;55.58;99530.16;5093534;28;8829;-60
2023/09/17 10:56:45;;;;;;;;;5.00;5.00;;;;;28.92;56.15;99522.34;5093111;28;8830;-58
2023/09/17 10:59:13;;;;;;;;;7.80;6.80;;;;;28.81;56.08;99526.00;5092960;28;8837;-59
2023/09/17 11:01:41;;;;;;;;;5.20;5.00;;;;;28.79;56.55;99527.31;5092642;28;8838;-60
2023/09/17 11:04:10;;;;;;;;;5.00;5.00;;;;;28.74;56.46;99519.84;5072205;28;8832;-59
2023/09/17 11:06:38;;;;;;;;;5.00;5.00;;;;;28.86;55.44;99522.50;5072658;28;8848;-59
2023/09/17 11:09:05;;;;;;;;;7.00;6.20;;;;;29.03;55.09;99523.34;5072838;28;8835;-59
2023/09/17 11:11:34;;;;;;;;;7.00;7.00;;;;;29.35;54.65;99516.97;5092281;28;8952;-59
2023/09/17 11:14:03;;;;;;;;;5.00;5.00;;;;;29.71;52.92;99516.41;5093132;28;8834;-59
2023/09/17 11:16:31;;;;;;;;;6.80;6.60;;;;;30.10;52.47;99525.44;5093436;28;8867;-61
2023/09/17 11:18:58;;;;;;;;;5.60;5.60;;;;;30.12;52.90;99526.81;5093359;28;8857;-60
2023/09/17 11:21:25;;;;;;;;;4.40;3.40;;;;;30.30;52.15;99525.63;5092964;28;8926;-59
2023/09/17 11:23:53;;;;;;;;;8.20;6.00;;;;;30.69;51.04;99522.47;5093159;28;8838;-59
2023/09/17 11:26:21;;;;;;;;;4.00;4.00;;;;;30.72;51.06;99532.13;5093592;28;8854;-59
2023/09/17 11:28:49;;;;;;;;;5.00;4.20;;;;;30.92;50.92;99519.38;5093509;28;8834;-60
2023/09/17 11:31:17;;;;;;;;;5.80;5.20;;;;;30.73;51.03;99523.63;5093228;28;8833;-59
2023/09/17 11:33:45;;;;;;;;;4.80;4.20;;;;;31.12;50.68;99522.28;5093487;28;8838;-60